sensor_id;sensor_type;location;lat;lon;timestamp;pressure;altitude;pressure_sealevel;temperature;humidity
76460;BME280;65299;46.084;18.762;2023-07-16T00:02:15;100453.16;;;22.29;77.18
76460;BME280;65299;46.084;18.762;2023-07-16T00:05:16;100452.00;;;22.18;77.33
76460;BME280;65299;46.084;18.762;2023-07-16T00:08:17;100455.84;;;22.17;77.62
76460;BME280;65299;46.084;18.762;2023-07-16T00:11:17;100453.34;;;22.24;77.00
76460;BME280;65299;46.084;18.762;2023-07-16T00:14:17;100456.63;;;22.29;76.52
76460;BME280;65299;46.084;18.762;2023-07-16T00:17:18;100449.53;;;22.13;77.06
76460;BME280;65299;46.084;18.762;2023-07-16T00:20:18;100450.09;;;22.18;76.62
76460;BME280;65299;46.084;18.762;2023-07-16T00:23:19;100459.44;;;22.09;76.88
76460;BME280;65299;46.084;18.762;2023-07-16T00:26:19;100461.66;;;22.07;77.24
76460;BME280;65299;46.084;18.762;2023-07-16T00:29:20;100467.25;;;21.90;77.46
76460;BME280;65299;46.084;18.762;2023-07-16T00:32:20;100454.91;;;22.01;77.24
76460;BME280;65299;46.084;18.762;2023-07-16T00:35:21;100465.00;;;21.92;77.91
76460;BME280;65299;46.084;18.762;2023-07-16T00:38:21;100463.53;;;21.82;77.48
76460;BME280;65299;46.084;18.762;2023-07-16T00:41:22;100461.84;;;21.69;77.92
76460;BME280;65299;46.084;18.762;2023-07-16T00:44:22;100456.09;;;21.71;78.02
76460;BME280;65299;46.084;18.762;2023-07-16T00:47:23;100464.66;;;21.73;77.78
76460;BME280;65299;46.084;18.762;2023-07-16T00:50:24;100447.97;;;21.59;78.14
76460;BME280;65299;46.084;18.762;2023-07-16T00:53:24;100451.38;;;21.68;77.96
76460;BME280;65299;46.084;18.762;2023-07-16T00:56:25;100445.66;;;21.48;78.64
76460;BME280;65299;46.084;18.762;2023-07-16T00:59:25;100432.63;;;21.51;78.69
76460;BME280;65299;46.084;18.762;2023-07-16T01:02:26;100435.09;;;21.43;79.22
76460;BME280;65299;46.084;18.762;2023-07-16T01:05:40;100426.31;;;21.46;79.12
76460;BME280;65299;46.084;18.762;2023-07-16T01:08:58;100420.25;;;21.50;78.73
76460;BME280;65299;46.084;18.762;2023-07-16T01:12:02;100425.78;;;21.53;78.73
76460;BME280;65299;46.084;18.762;2023-07-16T01:15:03;100425.72;;;21.41;79.20
76460;BME280;65299;46.084;18.762;2023-07-16T01:18:05;100425.69;;;21.62;78.75
76460;BME280;65299;46.084;18.762;2023-07-16T01:21:05;100427.56;;;21.49;78.02
76460;BME280;65299;46.084;18.762;2023-07-16T01:27:57;100429.72;;;21.56;77.59
76460;BME280;65299;46.084;18.762;2023-07-16T01:30:59;100428.22;;;21.46;78.33
76460;BME280;65299;46.084;18.762;2023-07-16T01:34:02;100423.22;;;21.69;77.12
76460;BME280;65299;46.084;18.762;2023-07-16T01:37:04;100417.09;;;21.48;77.96
76460;BME280;65299;46.084;18.762;2023-07-16T01:40:07;100428.34;;;21.50;77.68
76460;BME280;65299;46.084;18.762;2023-07-16T01:43:09;100418.94;;;21.56;77.82
76460;BME280;65299;46.084;18.762;2023-07-16T01:46:09;100420.31;;;21.62;76.81
76460;BME280;65299;46.084;18.762;2023-07-16T01:49:10;100414.34;;;21.35;77.92
76460;BME280;65299;46.084;18.762;2023-07-16T01:52:11;100417.47;;;21.58;77.25
76460;BME280;65299;46.084;18.762;2023-07-16T01:55:11;100419.13;;;21.51;77.90
76460;BME280;65299;46.084;18.762;2023-07-16T01:58:12;100416.19;;;21.23;78.47
76460;BME280;65299;46.084;18.762;2023-07-16T02:01:12;100419.41;;;21.37;78.46
76460;BME280;65299;46.084;18.762;2023-07-16T02:04:13;100411.25;;;21.25;78.28
76460;BME280;65299;46.084;18.762;2023-07-16T02:07:13;100417.66;;;21.20;78.34
76460;BME280;65299;46.084;18.762;2023-07-16T02:10:14;100417.34;;;20.93;79.39
76460;BME280;65299;46.084;18.762;2023-07-16T02:13:14;100420.47;;;21.03;79.22
76460;BME280;65299;46.084;18.762;2023-07-16T02:16:15;100419.38;;;20.96;79.34
76460;BME280;65299;46.084;18.762;2023-07-16T02:19:15;100416.25;;;21.14;78.95
76460;BME280;65299;46.084;18.762;2023-07-16T02:22:16;100417.13;;;21.27;78.17
76460;BME280;65299;46.084;18.762;2023-07-16T02:25:16;100420.63;;;21.07;78.63
76460;BME280;65299;46.084;18.762;2023-07-16T02:28:17;100422.59;;;20.89;79.44
76460;BME280;65299;46.084;18.762;2023-07-16T02:31:17;100420.56;;;20.86;79.75
76460;BME280;65299;46.084;18.762;2023-07-16T02:34:18;100430.44;;;20.82;79.64
76460;BME280;65299;46.084;18.762;2023-07-16T02:37:18;100434.38;;;20.85;79.90
76460;BME280;65299;46.084;18.762;2023-07-16T02:40:19;100426.53;;;21.21;77.89
76460;BME280;65299;46.084;18.762;2023-07-16T02:43:19;100428.84;;;21.10;77.88
76460;BME280;65299;46.084;18.762;2023-07-16T02:46:20;100429.72;;;20.94;79.46
76460;BME280;65299;46.084;18.762;2023-07-16T02:49:20;100431.75;;;20.76;80.26
76460;BME280;65299;46.084;18.762;2023-07-16T02:52:21;100432.84;;;20.75;79.37
76460;BME280;65299;46.084;18.762;2023-07-16T02:55:21;100427.19;;;20.68;79.97
76460;BME280;65299;46.084;18.762;2023-07-16T02:58:22;100431.22;;;20.83;79.74
76460;BME280;65299;46.084;18.762;2023-07-16T03:01:22;100429.75;;;20.85;79.16
76460;BME280;65299;46.084;18.762;2023-07-16T03:04:23;100429.22;;;20.71;79.90
76460;BME280;65299;46.084;18.762;2023-07-16T03:07:23;100425.00;;;20.91;79.02
76460;BME280;65299;46.084;18.762;2023-07-16T03:10:24;100436.84;;;20.69;79.67
76460;BME280;65299;46.084;18.762;2023-07-16T03:13:26;100427.69;;;20.61;80.30
76460;BME280;65299;46.084;18.762;2023-07-16T03:16:27;100433.22;;;20.65;79.61
76460;BME280;65299;46.084;18.762;2023-07-16T03:19:27;100431.91;;;20.71;79.34
76460;BME280;65299;46.084;18.762;2023-07-16T03:22:29;100438.41;;;20.79;79.52
76460;BME280;65299;46.084;18.762;2023-07-16T03:25:30;100429.34;;;20.54;80.75
76460;BME280;65299;46.084;18.762;2023-07-16T03:28:30;100444.47;;;20.67;80.06
76460;BME280;65299;46.084;18.762;2023-07-16T03:31:30;100441.13;;;20.70;79.47
76460;BME280;65299;46.084;18.762;2023-07-16T03:34:31;100433.38;;;20.69;79.95
76460;BME280;65299;46.084;18.762;2023-07-16T03:37:31;100437.25;;;20.80;79.55
76460;BME280;65299;46.084;18.762;2023-07-16T03:40:32;100446.16;;;20.80;79.69
76460;BME280;65299;46.084;18.762;2023-07-16T03:43:32;100449.56;;;20.89;79.61
76460;BME280;65299;46.084;18.762;2023-07-16T03:46:33;100449.91;;;20.88;79.06
76460;BME280;65299;46.084;18.762;2023-07-16T03:49:33;100440.16;;;21.04;78.56
76460;BME280;65299;46.084;18.762;2023-07-16T03:52:34;100448.34;;;20.87;78.61
76460;BME280;65299;46.084;18.762;2023-07-16T03:55:34;100448.41;;;21.07;77.65
76460;BME280;65299;46.084;18.762;2023-07-16T03:58:35;100441.88;;;21.08;77.29
76460;BME280;65299;46.084;18.762;2023-07-16T04:01:36;100446.81;;;21.06;77.50
76460;BME280;65299;46.084;18.762;2023-07-16T04:04:36;100448.72;;;21.47;76.39
76460;BME280;65299;46.084;18.762;2023-07-16T04:07:37;100451.84;;;21.70;75.28
76460;BME280;65299;46.084;18.762;2023-07-16T04:10:37;100454.38;;;21.87;74.93
76460;BME280;65299;46.084;18.762;2023-07-16T04:13:40;100448.75;;;22.37;73.20
76460;BME280;65299;46.084;18.762;2023-07-16T04:16:40;100454.06;;;22.93;70.84
76460;BME280;65299;46.084;18.762;2023-07-16T04:19:41;100450.47;;;22.65;72.34
76460;BME280;65299;46.084;18.762;2023-07-16T04:22:41;100453.47;;;23.12;70.79
76460;BME280;65299;46.084;18.762;2023-07-16T04:25:45;100459.88;;;24.03;66.89
76460;BME280;65299;46.084;18.762;2023-07-16T04:28:45;100468.31;;;23.70;68.46
76460;BME280;65299;46.084;18.762;2023-07-16T04:31:46;100471.25;;;23.65;69.22
76460;BME280;65299;46.084;18.762;2023-07-16T04:34:46;100464.69;;;24.37;66.31
76460;BME280;65299;46.084;18.762;2023-07-16T04:37:47;100475.09;;;24.35;66.51
76460;BME280;65299;46.084;18.762;2023-07-16T04:40:47;100478.09;;;24.02;68.33
76460;BME280;65299;46.084;18.762;2023-07-16T04:43:48;100474.53;;;24.60;66.18
76460;BME280;65299;46.084;18.762;2023-07-16T04:46:48;100484.19;;;24.42;67.38
76460;BME280;65299;46.084;18.762;2023-07-16T04:49:48;100482.44;;;24.19;67.60
76460;BME280;65299;46.084;18.762;2023-07-16T04:52:49;100473.13;;;24.82;65.91
76460;BME280;65299;46.084;18.762;2023-07-16T04:55:49;100482.16;;;25.21;63.33
76460;BME280;65299;46.084;18.762;2023-07-16T04:58:50;100480.72;;;25.27;62.40
76460;BME280;65299;46.084;18.762;2023-07-16T05:01:50;100481.28;;;25.52;61.77
76460;BME280;65299;46.084;18.762;2023-07-16T05:04:51;100483.63;;;25.72;62.06
76460;BME280;65299;46.084;18.762;2023-07-16T05:07:51;100479.63;;;25.85;60.97
76460;BME280;65299;46.084;18.762;2023-07-16T05:10:52;100477.63;;;26.05;60.83
76460;BME280;65299;46.084;18.762;2023-07-16T05:13:52;100479.38;;;26.36;60.08
76460;BME280;65299;46.084;18.762;2023-07-16T05:16:52;100475.81;;;25.90;60.38
76460;BME280;65299;46.084;18.762;2023-07-16T05:19:53;100479.09;;;25.99;60.51
76460;BME280;65299;46.084;18.762;2023-07-16T05:22:54;100487.84;;;26.31;58.75
76460;BME280;65299;46.084;18.762;2023-07-16T05:25:55;100486.31;;;26.33;59.63
76460;BME280;65299;46.084;18.762;2023-07-16T05:28:58;100479.59;;;26.27;59.57
76460;BME280;65299;46.084;18.762;2023-07-16T05:31:59;100485.00;;;26.04;60.18
76460;BME280;65299;46.084;18.762;2023-07-16T05:35:00;100481.53;;;26.49;59.92
76460;BME280;65299;46.084;18.762;2023-07-16T05:38:00;100475.84;;;26.58;59.57
76460;BME280;65299;46.084;18.762;2023-07-16T05:41:02;100481.31;;;26.84;59.17
76460;BME280;65299;46.084;18.762;2023-07-16T05:44:03;100483.53;;;26.75;59.29
76460;BME280;65299;46.084;18.762;2023-07-16T05:47:04;100483.78;;;26.92;58.91
76460;BME280;65299;46.084;18.762;2023-07-16T05:50:05;100480.91;;;27.08;59.03
76460;BME280;65299;46.084;18.762;2023-07-16T05:53:05;100483.91;;;26.99;60.23
76460;BME280;65299;46.084;18.762;2023-07-16T05:56:06;100486.97;;;26.72;60.93
76460;BME280;65299;46.084;18.762;2023-07-16T05:59:06;100488.03;;;26.90;60.76
76460;BME280;65299;46.084;18.762;2023-07-16T06:02:07;100487.47;;;27.33;59.00
76460;BME280;65299;46.084;18.762;2023-07-16T06:05:08;100490.75;;;27.42;58.61
76460;BME280;65299;46.084;18.762;2023-07-16T06:08:08;100486.66;;;27.59;58.16
76460;BME280;65299;46.084;18.762;2023-07-16T06:11:09;100486.97;;;27.54;58.24
76460;BME280;65299;46.084;18.762;2023-07-16T06:14:09;100495.72;;;27.66;58.19
76460;BME280;65299;46.084;18.762;2023-07-16T06:17:10;100496.78;;;27.92;56.11
76460;BME280;65299;46.084;18.762;2023-07-16T06:20:10;100495.66;;;27.96;55.88
76460;BME280;65299;46.084;18.762;2023-07-16T06:23:13;100500.28;;;28.29;55.94
76460;BME280;65299;46.084;18.762;2023-07-16T06:26:16;100505.91;;;28.46;54.93
76460;BME280;65299;46.084;18.762;2023-07-16T06:29:17;100503.13;;;28.43;55.70
76460;BME280;65299;46.084;18.762;2023-07-16T06:32:17;100508.09;;;28.74;54.53
76460;BME280;65299;46.084;18.762;2023-07-16T06:35:18;100509.31;;;28.80;53.34
76460;BME280;65299;46.084;18.762;2023-07-16T06:38:18;100511.63;;;28.78;54.00
76460;BME280;65299;46.084;18.762;2023-07-16T06:41:18;100506.19;;;28.82;54.15
76460;BME280;65299;46.084;18.762;2023-07-16T06:44:19;100502.72;;;28.85;53.75
76460;BME280;65299;46.084;18.762;2023-07-16T06:47:19;100496.94;;;29.00;53.91
76460;BME280;65299;46.084;18.762;2023-07-16T06:50:20;100497.31;;;28.95;53.23
76460;BME280;65299;46.084;18.762;2023-07-16T06:53:20;100489.97;;;29.10;53.66
76460;BME280;65299;46.084;18.762;2023-07-16T06:56:21;100492.25;;;28.97;54.40
76460;BME280;65299;46.084;18.762;2023-07-16T06:59:21;100493.44;;;29.00;54.35
76460;BME280;65299;46.084;18.762;2023-07-16T07:02:21;100492.38;;;29.18;54.94
76460;BME280;65299;46.084;18.762;2023-07-16T07:05:22;100493.63;;;29.31;54.71
76460;BME280;65299;46.084;18.762;2023-07-16T07:08:22;100494.84;;;29.41;54.27
76460;BME280;65299;46.084;18.762;2023-07-16T07:11:23;100503.22;;;29.04;55.48
76460;BME280;65299;46.084;18.762;2023-07-16T07:14:23;100497.91;;;29.25;54.81
76460;BME280;65299;46.084;18.762;2023-07-16T07:17:24;100497.59;;;29.41;54.70
76460;BME280;65299;46.084;18.762;2023-07-16T07:20:24;100498.03;;;29.57;54.62
76460;BME280;65299;46.084;18.762;2023-07-16T07:23:24;100495.72;;;29.63;54.84
76460;BME280;65299;46.084;18.762;2023-07-16T07:26:25;100493.00;;;29.63;54.61
76460;BME280;65299;46.084;18.762;2023-07-16T07:29:26;100490.34;;;29.87;53.69
76460;BME280;65299;46.084;18.762;2023-07-16T07:32:26;100486.81;;;29.80;54.29
76460;BME280;65299;46.084;18.762;2023-07-16T07:35:26;100491.16;;;29.98;54.12
76460;BME280;65299;46.084;18.762;2023-07-16T07:38:29;100495.41;;;29.82;54.31
76460;BME280;65299;46.084;18.762;2023-07-16T07:41:30;100495.88;;;30.15;54.28
76460;BME280;65299;46.084;18.762;2023-07-16T07:44:30;100494.31;;;30.14;54.03
76460;BME280;65299;46.084;18.762;2023-07-16T07:47:30;100496.66;;;30.26;53.52
76460;BME280;65299;46.084;18.762;2023-07-16T07:50:31;100497.50;;;30.52;53.28
76460;BME280;65299;46.084;18.762;2023-07-16T07:53:31;100501.00;;;30.87;53.22
76460;BME280;65299;46.084;18.762;2023-07-16T07:56:32;100496.28;;;31.02;52.46
76460;BME280;65299;46.084;18.762;2023-07-16T07:59:32;100492.63;;;31.37;52.10
76460;BME280;65299;46.084;18.762;2023-07-16T08:02:33;100494.97;;;31.56;52.67
76460;BME280;65299;46.084;18.762;2023-07-16T08:05:33;100501.19;;;31.56;51.92
76460;BME280;65299;46.084;18.762;2023-07-16T08:08:34;100490.66;;;31.51;53.22
76460;BME280;65299;46.084;18.762;2023-07-16T08:11:35;100500.50;;;31.31;52.99
76460;BME280;65299;46.084;18.762;2023-07-16T08:14:35;100499.25;;;31.57;53.51
76460;BME280;65299;46.084;18.762;2023-07-16T08:17:35;100492.75;;;32.02;52.15
76460;BME280;65299;46.084;18.762;2023-07-16T08:20:36;100499.91;;;31.82;52.03
76460;BME280;65299;46.084;18.762;2023-07-16T08:23:37;100494.78;;;31.95;52.92
76460;BME280;65299;46.084;18.762;2023-07-16T08:26:40;100497.13;;;31.93;51.40
76460;BME280;65299;46.084;18.762;2023-07-16T08:29:40;100503.22;;;32.21;51.40
76460;BME280;65299;46.084;18.762;2023-07-16T08:32:41;100496.19;;;32.17;50.86
76460;BME280;65299;46.084;18.762;2023-07-16T08:35:41;100501.13;;;32.36;50.52
76460;BME280;65299;46.084;18.762;2023-07-16T08:38:42;100507.13;;;32.24;50.31
76460;BME280;65299;46.084;18.762;2023-07-16T08:41:42;100501.47;;;32.48;48.83
76460;BME280;65299;46.084;18.762;2023-07-16T08:44:43;100505.66;;;32.60;47.12
76460;BME280;65299;46.084;18.762;2023-07-16T08:47:43;100504.78;;;32.74;46.75
76460;BME280;65299;46.084;18.762;2023-07-16T08:50:47;100506.69;;;32.77;45.41
76460;BME280;65299;46.084;18.762;2023-07-16T08:53:48;100509.09;;;32.71;45.99
76460;BME280;65299;46.084;18.762;2023-07-16T08:56:48;100501.56;;;32.79;44.92
76460;BME280;65299;46.084;18.762;2023-07-16T08:59:51;100507.91;;;33.16;47.13
76460;BME280;65299;46.084;18.762;2023-07-16T09:02:52;100509.91;;;33.12;46.12
76460;BME280;65299;46.084;18.762;2023-07-16T09:05:54;100513.06;;;33.11;45.67
76460;BME280;65299;46.084;18.762;2023-07-16T09:08:54;100501.16;;;33.21;45.88
76460;BME280;65299;46.084;18.762;2023-07-16T09:11:55;100510.72;;;33.43;45.28
76460;BME280;65299;46.084;18.762;2023-07-16T09:14:56;100499.09;;;33.62;44.16
76460;BME280;65299;46.084;18.762;2023-07-16T09:17:56;100495.34;;;33.49;44.09
76460;BME280;65299;46.084;18.762;2023-07-16T09:20:58;100500.94;;;33.38;43.71
76460;BME280;65299;46.084;18.762;2023-07-16T09:24:06;100498.38;;;33.58;44.09
76460;BME280;65299;46.084;18.762;2023-07-16T09:27:11;100495.38;;;33.76;43.38
76460;BME280;65299;46.084;18.762;2023-07-16T09:30:15;100489.28;;;33.61;43.37
76460;BME280;65299;46.084;18.762;2023-07-16T09:33:17;100490.28;;;33.74;42.97
76460;BME280;65299;46.084;18.762;2023-07-16T09:36:26;100494.59;;;34.05;42.49
76460;BME280;65299;46.084;18.762;2023-07-16T09:39:27;100491.56;;;33.96;42.37
76460;BME280;65299;46.084;18.762;2023-07-16T09:42:28;100486.22;;;33.82;42.67
76460;BME280;65299;46.084;18.762;2023-07-16T09:45:29;100486.41;;;33.98;41.52
76460;BME280;65299;46.084;18.762;2023-07-16T09:48:29;100484.41;;;34.25;41.08
76460;BME280;65299;46.084;18.762;2023-07-16T09:51:30;100493.13;;;34.47;38.89
76460;BME280;65299;46.084;18.762;2023-07-16T09:54:35;100490.06;;;34.18;35.91
76460;BME280;65299;46.084;18.762;2023-07-16T09:57:41;100482.88;;;34.24;36.38
76460;BME280;65299;46.084;18.762;2023-07-16T10:00:44;100489.69;;;34.40;36.68
76460;BME280;65299;46.084;18.762;2023-07-16T10:03:51;100483.00;;;34.64;34.90
76460;BME280;65299;46.084;18.762;2023-07-16T10:06:53;100487.59;;;34.24;36.62
76460;BME280;65299;46.084;18.762;2023-07-16T10:09:55;100481.56;;;34.33;35.22
76460;BME280;65299;46.084;18.762;2023-07-16T10:13:02;100479.94;;;34.35;34.64
76460;BME280;65299;46.084;18.762;2023-07-16T10:16:03;100470.91;;;34.58;34.85
76460;BME280;65299;46.084;18.762;2023-07-16T10:19:04;100477.75;;;34.00;37.46
76460;BME280;65299;46.084;18.762;2023-07-16T10:22:04;100472.91;;;33.51;38.56
76460;BME280;65299;46.084;18.762;2023-07-16T10:28:18;100471.59;;;33.89;38.51
76460;BME280;65299;46.084;18.762;2023-07-16T10:31:23;100474.16;;;34.03;37.04
76460;BME280;65299;46.084;18.762;2023-07-16T10:34:24;100468.06;;;34.38;38.17
76460;BME280;65299;46.084;18.762;2023-07-16T10:37:26;100472.16;;;34.30;36.90
76460;BME280;65299;46.084;18.762;2023-07-16T10:40:27;100472.84;;;34.11;36.84
76460;BME280;65299;46.084;18.762;2023-07-16T10:43:27;100469.59;;;34.43;36.50
76460;BME280;65299;46.084;18.762;2023-07-16T10:46:28;100470.91;;;34.58;36.52
76460;BME280;65299;46.084;18.762;2023-07-16T10:49:29;100470.63;;;34.52;36.01
76460;BME280;65299;46.084;18.762;2023-07-16T10:52:29;100474.13;;;34.76;36.59
76460;BME280;65299;46.084;18.762;2023-07-16T10:55:30;100466.56;;;35.23;35.61
76460;BME280;65299;46.084;18.762;2023-07-16T10:58:31;100468.47;;;34.83;35.93
76460;BME280;65299;46.084;18.762;2023-07-16T11:01:35;100471.50;;;34.69;35.93
76460;BME280;65299;46.084;18.762;2023-07-16T11:04:36;100467.19;;;34.68;37.68
76460;BME280;65299;46.084;18.762;2023-07-16T11:07:37;100457.44;;;35.06;35.85
76460;BME280;65299;46.084;18.762;2023-07-16T11:10:37;100466.09;;;34.85;37.67
76460;BME280;65299;46.084;18.762;2023-07-16T11:13:37;100458.13;;;35.10;35.16
76460;BME280;65299;46.084;18.762;2023-07-16T11:16:38;100463.84;;;35.19;35.78
76460;BME280;65299;46.084;18.762;2023-07-16T11:19:40;100466.78;;;35.12;36.43
76460;BME280;65299;46.084;18.762;2023-07-16T11:22:43;100465.53;;;34.93;37.58
76460;BME280;65299;46.084;18.762;2023-07-16T11:25:49;100463.75;;;34.83;36.88
76460;BME280;65299;46.084;18.762;2023-07-16T11:28:52;100468.47;;;34.83;37.80
76460;BME280;65299;46.084;18.762;2023-07-16T11:31:52;100463.50;;;34.74;38.35
76460;BME280;65299;46.084;18.762;2023-07-16T11:34:57;100458.00;;;34.97;38.53
76460;BME280;65299;46.084;18.762;2023-07-16T11:37:58;100462.25;;;34.79;37.43
76460;BME280;65299;46.084;18.762;2023-07-16T11:41:00;100463.69;;;34.64;37.94
76460;BME280;65299;46.084;18.762;2023-07-16T11:44:01;100463.56;;;34.48;37.77
76460;BME280;65299;46.084;18.762;2023-07-16T11:47:07;100457.84;;;34.62;37.67
76460;BME280;65299;46.084;18.762;2023-07-16T11:50:08;100450.53;;;34.29;38.90
76460;BME280;65299;46.084;18.762;2023-07-16T11:53:08;100450.75;;;34.14;38.07
76460;BME280;65299;46.084;18.762;2023-07-16T11:56:09;100454.88;;;34.53;37.35
76460;BME280;65299;46.084;18.762;2023-07-16T11:59:09;100458.75;;;34.55;36.40
76460;BME280;65299;46.084;18.762;2023-07-16T12:02:12;100444.16;;;34.78;36.78
76460;BME280;65299;46.084;18.762;2023-07-16T12:05:21;100450.16;;;34.73;36.50
76460;BME280;65299;46.084;18.762;2023-07-16T12:08:22;100447.63;;;34.36;36.79
76460;BME280;65299;46.084;18.762;2023-07-16T12:11:22;100448.94;;;34.74;37.57
76460;BME280;65299;46.084;18.762;2023-07-16T12:14:23;100451.50;;;34.65;36.66
76460;BME280;65299;46.084;18.762;2023-07-16T12:17:23;100445.88;;;34.49;36.41
76460;BME280;65299;46.084;18.762;2023-07-16T12:20:24;100444.97;;;34.98;36.79
76460;BME280;65299;46.084;18.762;2023-07-16T12:23:26;100443.19;;;35.27;35.41
76460;BME280;65299;46.084;18.762;2023-07-16T12:26:27;100447.28;;;34.80;36.54
76460;BME280;65299;46.084;18.762;2023-07-16T12:29:28;100445.88;;;35.11;36.01
76460;BME280;65299;46.084;18.762;2023-07-16T12:32:28;100451.09;;;34.86;35.32
76460;BME280;65299;46.084;18.762;2023-07-16T12:35:28;100454.38;;;35.20;37.12
76460;BME280;65299;46.084;18.762;2023-07-16T12:38:29;100445.31;;;35.20;35.63
76460;BME280;65299;46.084;18.762;2023-07-16T12:41:29;100454.59;;;35.10;35.70
76460;BME280;65299;46.084;18.762;2023-07-16T12:44:30;100447.22;;;35.03;36.01
76460;BME280;65299;46.084;18.762;2023-07-16T12:47:30;100435.63;;;35.51;35.88
76460;BME280;65299;46.084;18.762;2023-07-16T12:50:32;100448.31;;;35.64;36.83
76460;BME280;65299;46.084;18.762;2023-07-16T12:53:32;100442.16;;;35.37;35.89
76460;BME280;65299;46.084;18.762;2023-07-16T12:56:39;100443.13;;;35.11;36.34
76460;BME280;65299;46.084;18.762;2023-07-16T12:59:39;100444.34;;;35.10;35.51
76460;BME280;65299;46.084;18.762;2023-07-16T13:02:39;100439.56;;;35.50;35.53
76460;BME280;65299;46.084;18.762;2023-07-16T13:05:40;100445.44;;;35.52;35.92
76460;BME280;65299;46.084;18.762;2023-07-16T13:08:41;100440.19;;;35.38;36.22
76460;BME280;65299;46.084;18.762;2023-07-16T13:11:42;100443.63;;;35.06;36.24
76460;BME280;65299;46.084;18.762;2023-07-16T13:14:43;100445.44;;;35.52;37.11
76460;BME280;65299;46.084;18.762;2023-07-16T13:17:43;100448.88;;;35.20;36.50
76460;BME280;65299;46.084;18.762;2023-07-16T13:20:44;100448.50;;;35.18;36.30
76460;BME280;65299;46.084;18.762;2023-07-16T13:23:45;100443.28;;;35.04;36.45
76460;BME280;65299;46.084;18.762;2023-07-16T13:26:45;100441.41;;;35.37;37.10
76460;BME280;65299;46.084;18.762;2023-07-16T13:29:45;100443.47;;;35.13;37.55
76460;BME280;65299;46.084;18.762;2023-07-16T13:32:46;100446.38;;;35.26;37.36
76460;BME280;65299;46.084;18.762;2023-07-16T13:35:48;100449.00;;;35.13;36.29
76460;BME280;65299;46.084;18.762;2023-07-16T13:38:49;100452.09;;;35.15;37.24
76460;BME280;65299;46.084;18.762;2023-07-16T13:41:51;100448.75;;;35.43;36.65
76460;BME280;65299;46.084;18.762;2023-07-16T13:44:51;100442.47;;;35.78;35.35
76460;BME280;65299;46.084;18.762;2023-07-16T13:47:52;100444.16;;;35.56;36.16
76460;BME280;65299;46.084;18.762;2023-07-16T13:50:52;100446.16;;;35.17;36.45
76460;BME280;65299;46.084;18.762;2023-07-16T13:53:53;100448.53;;;34.95;37.12
76460;BME280;65299;46.084;18.762;2023-07-16T13:56:53;100447.44;;;35.12;36.52
76460;BME280;65299;46.084;18.762;2023-07-16T13:59:53;100442.09;;;35.60;36.33
76460;BME280;65299;46.084;18.762;2023-07-16T14:02:54;100436.25;;;35.74;35.50
76460;BME280;65299;46.084;18.762;2023-07-16T14:05:54;100447.50;;;35.28;36.25
76460;BME280;65299;46.084;18.762;2023-07-16T14:08:55;100448.63;;;35.50;35.97
76460;BME280;65299;46.084;18.762;2023-07-16T14:11:55;100445.09;;;35.50;34.79
76460;BME280;65299;46.084;18.762;2023-07-16T14:14:55;100446.91;;;35.56;36.82
76460;BME280;65299;46.084;18.762;2023-07-16T14:17:56;100434.84;;;35.66;35.70
76460;BME280;65299;46.084;18.762;2023-07-16T14:20:56;100435.75;;;35.79;35.52
76460;BME280;65299;46.084;18.762;2023-07-16T14:24:02;100441.91;;;35.51;36.52
76460;BME280;65299;46.084;18.762;2023-07-16T14:27:04;100433.66;;;35.12;36.46
76460;BME280;65299;46.084;18.762;2023-07-16T14:30:07;100435.75;;;35.24;36.88
76460;BME280;65299;46.084;18.762;2023-07-16T14:33:08;100437.50;;;35.54;36.61
76460;BME280;65299;46.084;18.762;2023-07-16T14:36:09;100431.44;;;35.23;36.41
76460;BME280;65299;46.084;18.762;2023-07-16T14:39:09;100430.38;;;35.72;35.84
76460;BME280;65299;46.084;18.762;2023-07-16T14:42:10;100429.28;;;36.79;34.06
76460;BME280;65299;46.084;18.762;2023-07-16T14:45:10;100424.69;;;38.31;31.53
76460;BME280;65299;46.084;18.762;2023-07-16T14:48:11;100423.47;;;38.19;32.03
76460;BME280;65299;46.084;18.762;2023-07-16T14:51:11;100415.81;;;38.57;31.34
76460;BME280;65299;46.084;18.762;2023-07-16T14:54:13;100419.09;;;38.99;31.54
76460;BME280;65299;46.084;18.762;2023-07-16T14:57:13;100416.50;;;39.05;31.14
76460;BME280;65299;46.084;18.762;2023-07-16T15:00:14;100418.56;;;40.32;28.81
76460;BME280;65299;46.084;18.762;2023-07-16T15:03:14;100412.25;;;39.83;29.78
76460;BME280;65299;46.084;18.762;2023-07-16T15:06:30;100416.50;;;39.05;30.41
76460;BME280;65299;46.084;18.762;2023-07-16T15:09:31;100415.84;;;39.22;30.22
76460;BME280;65299;46.084;18.762;2023-07-16T15:12:31;100418.50;;;39.04;30.45
76460;BME280;65299;46.084;18.762;2023-07-16T15:15:36;100414.88;;;39.38;30.83
76460;BME280;65299;46.084;18.762;2023-07-16T15:18:37;100422.41;;;39.37;30.50
76460;BME280;65299;46.084;18.762;2023-07-16T15:21:37;100417.03;;;39.12;30.61
76460;BME280;65299;46.084;18.762;2023-07-16T15:24:38;100417.19;;;39.39;30.62
76460;BME280;65299;46.084;18.762;2023-07-16T15:27:39;100419.47;;;38.88;30.00
76460;BME280;65299;46.084;18.762;2023-07-16T15:30:39;100421.38;;;38.57;30.67
76460;BME280;65299;46.084;18.762;2023-07-16T15:33:39;100419.66;;;39.77;30.23
76460;BME280;65299;46.084;18.762;2023-07-16T15:36:40;100410.63;;;39.55;28.97
76460;BME280;65299;46.084;18.762;2023-07-16T15:39:40;100412.88;;;39.78;29.81
76460;BME280;65299;46.084;18.762;2023-07-16T15:42:41;100416.63;;;39.93;30.27